Time;durP1;ratioP1;P1;durP2;ratioP2;P2;SDS_P1;SDS_P2;PMS_P1;PMS_P2;Temp;Humidity;BMP_temperature;BMP_pressure;BME280_temperature;BME280_humidity;BME280_pressure;Samples;Min_cycle;Max_cycle;Signal;HPM_P1;HPM_P2
2021/11/18 00:00:41;;;;;;;0.52;0.52;;;;;;;;;;7333404;19;153527;-14
2021/11/18 00:03:15;;;;;;;0.40;0.40;;;;;;;;;;7332712;19;161939;-14
2021/11/18 00:05:47;;;;;;;0.52;0.52;;;;;;;;;;7332507;19;162401;-14
2021/11/18 00:08:21;;;;;;;0.55;0.55;;;;;;;;;;7332826;19;153716;-12
2021/11/18 00:10:55;;;;;;;0.60;0.60;;;;;;;;;;7332944;19;154234;-12
2021/11/18 00:13:30;;;;;;;0.65;0.50;;;;;;;;;;7336783;19;163297;-15
2021/11/18 00:16:09;;;;;;;0.50;0.50;;;;;;;;;;7332351;19;162664;-15
2021/11/18 00:18:41;;;;;;;0.50;0.50;;;;;;;;;;7331860;19;154347;-14
2021/11/18 00:21:16;;;;;;;0.55;0.55;;;;;;;;;;7332890;19;153525;-14
2021/11/18 00:23:52;;;;;;;0.57;0.50;;;;;;;;;;7332134;19;161813;-15
2021/11/18 00:26:25;;;;;;;0.73;0.50;;;;;;;;;;7332467;19;162572;-16
2021/11/18 00:28:57;;;;;;;0.50;0.50;;;;;;;;;;7333257;19;154017;-14
2021/11/18 00:31:31;;;;;;;0.63;0.57;;;;;;;;;;7331217;19;154056;-14
2021/11/18 00:34:03;;;;;;;0.60;0.60;;;;;;;;;;7330983;19;161850;-14
2021/11/18 00:36:35;;;;;;;0.52;0.52;;;;;;;;;;7332079;19;162452;-14
2021/11/18 00:39:09;;;;;;;0.57;0.57;;;;;;;;;;7330303;19;154006;-14
2021/11/18 00:41:42;;;;;;;0.50;0.50;;;;;;;;;;7332576;19;153551;-14
2021/11/18 00:44:13;;;;;;;0.50;0.50;;;;;;;;;;7331966;19;161790;-16
2021/11/18 00:46:45;;;;;;;0.40;0.40;;;;;;;;;;7331691;19;162433;-16
2021/11/18 00:49:17;;;;;;;0.40;0.40;;;;;;;;;;7330981;19;154182;-14
2021/11/18 00:51:49;;;;;;;0.55;0.55;;;;;;;;;;7331919;19;153611;-15
2021/11/18 00:54:23;;;;;;;0.50;0.50;;;;;;;;;;7331581;19;161911;-16
2021/11/18 00:56:55;;;;;;;0.40;0.40;;;;;;;;;;7330338;19;162565;-14
2021/11/18 00:59:29;;;;;;;0.52;0.52;;;;;;;;;;7329488;19;154373;-15
2021/11/18 01:02:00;;;;;;;0.40;0.40;;;;;;;;;;7330280;19;153507;-13
2021/11/18 01:04:32;;;;;;;1.17;0.52;;;;;;;;;;7329936;19;161916;-11
2021/11/18 01:07:03;;;;;;;0.80;0.50;;;;;;;;;;7331126;19;162431;-12
2021/11/18 01:09:38;;;;;;;0.40;0.40;;;;;;;;;;7332653;19;154596;-14
2021/11/18 01:12:11;;;;;;;0.50;0.50;;;;;;;;;;7335545;19;153516;-12
2021/11/18 01:14:42;;;;;;;0.50;0.50;;;;;;;;;;7332978;19;162030;-13
2021/11/18 01:17:16;;;;;;;0.50;0.50;;;;;;;;;;7330381;19;162570;-14
2021/11/18 01:19:48;;;;;;;0.60;0.60;;;;;;;;;;7328389;19;154197;-13
2021/11/18 01:22:20;;;;;;;0.50;0.50;;;;;;;;;;7329826;19;153879;-15
2021/11/18 01:24:54;;;;;;;0.50;0.50;;;;;;;;;;7329401;19;161954;-13
2021/11/18 01:27:28;;;;;;;0.43;0.43;;;;;;;;;;7334001;19;162418;-14
2021/11/18 01:30:24;;;;;;;0.47;0.47;;;;;;;;;;7329387;19;154060;-14
2021/11/18 01:32:58;;;;;;;0.50;0.50;;;;;;;;;;7330592;19;153560;-14
2021/11/18 01:35:36;;;;;;;0.40;0.40;;;;;;;;;;7329047;19;161886;-14
2021/11/18 01:38:08;;;;;;;0.47;0.47;;;;;;;;;;7329016;19;163139;-12
2021/11/18 01:40:48;;;;;;;0.40;0.40;;;;;;;;;;7327597;19;154269;-12
2021/11/18 01:43:34;;;;;;;0.50;0.50;;;;;;;;;;7328820;19;153586;-14
2021/11/18 10:22:15;;;;;;;0.40;0.40;;;;;;;;;;7371899;19;132667;-12
2021/11/18 10:24:50;;;;;;;0.43;0.43;;;;;;;;;;7367768;19;153777;-13
2021/11/18 10:27:27;;;;;;;0.50;0.50;;;;;;;;;;7364099;19;161830;-15
2021/11/18 10:30:03;;;;;;;0.55;0.55;;;;;;;;;;7364017;19;162355;-15
2021/11/18 10:32:45;;;;;;;0.63;0.40;;;;;;;;;;7366694;19;153930;-13
2021/11/18 10:35:22;;;;;;;1.17;0.52;;;;;;;;;;7364869;19;153701;-15
2021/11/18 10:38:15;;;;;;;0.55;0.50;;;;;;;;;;7366607;19;161944;-12
2021/11/18 10:41:00;;;;;;;0.50;0.50;;;;;;;;;;7368533;19;162511;-13
2021/11/18 10:43:35;;;;;;;0.40;0.40;;;;;;;;;;7365347;19;153932;-13
2021/11/18 10:46:28;;;;;;;0.50;0.50;;;;;;;;;;7367345;19;153563;-15
2021/11/18 10:49:02;;;;;;;0.40;0.40;;;;;;;;;;7363321;19;161844;-14
2021/11/18 10:51:39;;;;;;;0.88;0.40;;;;;;;;;;7363690;19;162870;-14
2021/11/18 10:54:15;;;;;;;0.82;0.50;;;;;;;;;;7367067;19;154078;-14
2021/11/18 10:56:51;;;;;;;0.30;0.30;;;;;;;;;;7368348;19;153606;-15
2021/11/18 10:59:36;;;;;;;0.40;0.40;;;;;;;;;;7365066;19;162082;-14
2021/11/18 11:02:19;;;;;;;0.40;0.40;;;;;;;;;;7364688;19;162446;-13
2021/11/18 11:04:52;;;;;;;0.57;0.50;;;;;;;;;;7367681;19;153934;-13
2021/11/18 11:07:39;;;;;;;0.40;0.40;;;;;;;;;;7364665;19;153989;-15
2021/11/18 11:10:17;;;;;;;0.45;0.45;;;;;;;;;;7365591;19;162071;-13
2021/11/18 11:12:57;;;;;;;0.50;0.50;;;;;;;;;;7365701;19;162393;-15
2021/11/18 11:15:51;;;;;;;0.60;0.60;;;;;;;;;;7363159;19;154022;-14
2021/11/18 11:18:34;;;;;;;0.40;0.40;;;;;;;;;;7366108;19;153610;-14
2021/11/18 11:21:13;;;;;;;;;;;;;;;;;;7357667;19;161983;-13
2021/11/18 11:23:56;;;;;;;0.35;0.35;;;;;;;;;;7335526;19;162699;-14
2021/11/18 11:26:57;;;;;;;0.40;0.40;;;;;;;;;;7337048;19;153915;-15
2021/11/18 11:29:37;;;;;;;0.40;0.40;;;;;;;;;;7335162;19;153558;-13
2021/11/18 11:32:16;;;;;;;0.30;0.30;;;;;;;;;;7332900;19;161825;-15
2021/11/18 11:35:00;;;;;;;0.40;0.40;;;;;;;;;;7336145;19;162392;-13
2021/11/18 11:37:54;;;;;;;;;;;;;;;;;;7338598;19;154069;-14
2021/11/18 11:40:36;;;;;;;0.50;0.50;;;;;;;;;;7336428;19;153358;-14
2021/11/18 11:43:34;;;;;;;0.30;0.30;;;;;;;;;;7332946;19;162184;-14
2021/11/18 11:46:21;;;;;;;0.50;0.50;;;;;;;;;;7335783;19;162445;-15
2021/11/18 11:49:06;;;;;;;0.32;0.32;;;;;;;;;;7335833;19;153992;-13
2021/11/18 11:51:50;;;;;;;0.20;0.20;;;;;;;;;;7331929;19;153675;-13
2021/11/18 11:54:57;;;;;;;0.40;0.40;;;;;;;;;;7330493;19;161979;-14
2021/11/18 11:57:38;;;;;;;0.32;0.30;;;;;;;;;;7329532;19;163345;-16
2021/11/18 12:00:17;;;;;;;0.30;0.30;;;;;;;;;;7329484;19;154234;-13
2021/11/18 12:02:58;;;;;;;0.40;0.40;;;;;;;;;;7328054;19;154050;-14
2021/11/18 12:05:35;;;;;;;0.40;0.40;;;;;;;;;;7334498;19;161540;-14
2021/11/18 12:08:11;;;;;;;1.00;0.35;;;;;;;;;;7332317;19;162677;-14
2021/11/18 12:10:48;;;;;;;0.43;0.43;;;;;;;;;;7332703;19;153931;-13
2021/11/18 12:13:29;;;;;;;0.30;0.30;;;;;;;;;;7332533;19;153693;-12
2021/11/18 12:16:07;;;;;;;0.40;0.40;;;;;;;;;;7332226;19;161968;-13
2021/11/18 12:18:54;;;;;;;0.40;0.40;;;;;;;;;;7332139;19;162392;-14
2021/11/18 12:21:27;;;;;;;0.30;0.30;;;;;;;;;;7333982;19;153971;-13
2021/11/18 12:24:11;;;;;;;0.30;0.30;;;;;;;;;;7331659;19;153853;-13
2021/11/18 12:26:56;;;;;;;0.30;0.30;;;;;;;;;;7332504;19;162342;-13
2021/11/18 12:29:42;;;;;;;0.47;0.47;;;;;;;;;;7334304;19;162250;-15
2021/11/18 12:32:36;;;;;;;0.38;0.38;;;;;;;;;;7330302;19;154098;-12
2021/11/18 12:35:37;;;;;;;0.50;0.50;;;;;;;;;;7330252;19;153752;-13
2021/11/18 12:38:38;;;;;;;0.47;0.40;;;;;;;;;;7331255;19;162002;-12
2021/11/18 12:41:34;;;;;;;0.30;0.30;;;;;;;;;;7331484;19;162347;-13
2021/11/18 12:44:35;;;;;;;0.35;0.35;;;;;;;;;;7331653;19;154066;-15
2021/11/18 12:47:11;;;;;;;0.40;0.40;;;;;;;;;;7331469;19;153528;-14
2021/11/18 12:50:17;;;;;;;0.30;0.30;;;;;;;;;;7331112;19;161817;-13
2021/11/18 12:53:19;;;;;;;0.40;0.40;;;;;;;;;;7330128;19;162517;-13
2021/11/18 12:56:10;;;;;;;0.40;0.40;;;;;;;;;;7335709;19;153926;-14
2021/11/18 12:58:47;;;;;;;0.30;0.30;;;;;;;;;;7331321;19;153683;-14
2021/11/18 13:01:40;;;;;;;0.43;0.43;;;;;;;;;;7329412;19;162059;-15
2021/11/18 13:04:11;;;;;;;;;;;;;;;;;;7331446;19;162419;-14
2021/11/18 13:06:54;;;;;;;0.28;0.28;;;;;;;;;;7331379;19;154000;-13
2021/11/18 13:09:25;;;;;;;0.50;0.40;;;;;;;;;;7329797;19;153770;-12
2021/11/18 13:12:01;;;;;;;0.20;0.20;;;;;;;;;;7329420;19;161807;-14
2021/11/18 13:15:00;;;;;;;7.43;1.25;;;;;;;;;;7330291;19;162308;-15
2021/11/18 13:17:44;;;;;;;4.20;1.27;;;;;;;;;;7330938;19;153954;-14
2021/11/18 13:20:42;;;;;;;2.28;1.10;;;;;;;;;;7332839;19;153569;-15
2021/11/18 13:23:36;;;;;;;3.42;0.80;;;;;;;;;;7333397;19;161836;-15
2021/11/18 13:26:19;;;;;;;0.85;0.60;;;;;;;;;;7330108;19;162353;-15
2021/11/18 13:29:04;;;;;;;1.83;0.60;;;;;;;;;;7330755;19;153729;-16
2021/11/18 13:31:42;;;;;;;0.85;0.50;;;;;;;;;;7330095;19;153833;-15
2021/11/18 13:34:26;;;;;;;0.65;0.57;;;;;;;;;;7329823;19;162175;-13
2021/11/18 13:37:04;;;;;;;1.50;0.60;;;;;;;;;;7328125;19;162545;-12
2021/11/18 13:39:42;;;;;;;2.42;0.70;;;;;;;;;;7330898;19;154020;-14
2021/11/18 13:42:24;;;;;;;1.15;0.57;;;;;;;;;;7333155;19;153522;-14
2021/11/18 13:45:14;;;;;;;0.55;0.55;;;;;;;;;;7329109;19;161881;-15
2021/11/18 13:47:53;;;;;;;1.20;0.50;;;;;;;;;;7328417;19;163143;-16
2021/11/18 13:50:32;;;;;;;2.17;0.60;;;;;;;;;;7330142;19;153960;-15
2021/11/18 13:53:08;;;;;;;0.88;0.55;;;;;;;;;;7327982;19;153828;-14
2021/11/18 13:55:49;;;;;;;0.47;0.45;;;;;;;;;;7329016;19;161821;-14
2021/11/18 13:58:24;;;;;;;0.60;0.60;;;;;;;;;;7329295;19;162378;-15
2021/11/18 14:01:14;;;;;;;0.50;0.50;;;;;;;;;;7329916;19;154015;-14
2021/11/18 14:03:51;;;;;;;2.00;0.57;;;;;;;;;;7328988;19;153548;-16
2021/11/18 14:06:26;;;;;;;0.93;0.50;;;;;;;;;;7328904;19;161984;-14
2021/11/18 14:09:00;;;;;;;0.68;0.47;;;;;;;;;;7329229;19;162346;-16
2021/11/18 14:11:34;;;;;;;0.40;0.40;;;;;;;;;;7333150;19;154009;-14
2021/11/18 14:14:40;;;;;;;0.40;0.40;;;;;;;;;;7324961;19;153708;-14
2021/11/18 14:17:24;;;;;;;0.55;0.47;;;;;;;;;;7328919;19;161862;-15
2021/11/18 14:20:34;;;;;;;0.57;0.47;;;;;;;;;;7327136;19;162419;-15
2021/11/18 14:23:23;;;;;;;0.50;0.50;;;;;;;;;;7329282;19;153959;-16
2021/11/18 14:26:27;;;;;;;0.47;0.47;;;;;;;;;;7327761;19;153837;-16
2021/11/18 14:29:01;;;;;;;0.40;0.40;;;;;;;;;;7331087;19;161982;-16
2021/11/18 14:31:42;;;;;;;3.15;1.30;;;;;;;;;;7330348;19;162613;-14
2021/11/18 14:34:27;;;;;;;2.60;1.27;;;;;;;;;;7330469;19;154051;-15
2021/11/18 14:37:18;;;;;;;3.63;1.20;;;;;;;;;;7331823;19;153853;-13
2021/11/18 14:39:52;;;;;;;2.95;1.15;;;;;;;;;;7327668;19;161875;-14
2021/11/18 14:42:26;;;;;;;2.78;0.77;;;;;;;;;;7327652;19;162761;-15
2021/11/18 14:45:14;;;;;;;4.10;0.98;;;;;;;;;;7328692;19;154057;-15
2021/11/18 14:47:47;;;;;;;1.20;0.70;;;;;;;;;;7327836;19;153581;-14
2021/11/18 14:50:38;;;;;;;1.23;0.75;;;;;;;;;;7327855;19;162095;-16
2021/11/18 14:53:28;;;;;;;1.23;0.60;;;;;;;;;;7326722;19;162391;-18
2021/11/18 14:56:03;;;;;;;0.40;0.40;;;;;;;;;;7327682;19;154252;-15
2021/11/18 14:58:35;;;;;;;0.40;0.40;;;;;;;;;;7338330;19;153724;-15
2021/11/18 15:01:17;;;;;;;0.40;0.40;;;;;;;;;;7333440;19;161969;-16
2021/11/18 15:03:54;;;;;;;1.85;0.50;;;;;;;;;;7333911;19;162296;-13
2021/11/18 15:06:30;;;;;;;1.17;0.38;;;;;;;;;;7331305;19;153986;-14
2021/11/18 15:09:04;;;;;;;1.40;0.50;;;;;;;;;;7331277;19;153814;-16
2021/11/18 15:11:37;;;;;;;0.85;0.40;;;;;;;;;;7334269;19;161766;-16
2021/11/18 15:14:11;;;;;;;0.50;0.50;;;;;;;;;;7332654;19;162712;-14
2021/11/18 15:16:43;;;;;;;1.05;0.40;;;;;;;;;;7334434;19;154268;-16
2021/11/18 15:19:14;;;;;;;0.55;0.40;;;;;;;;;;7334237;19;153529;-15
2021/11/18 15:21:48;;;;;;;0.40;0.40;;;;;;;;;;7331977;19;162175;-15
2021/11/18 15:24:22;;;;;;;1.02;0.50;;;;;;;;;;7333618;19;162348;-15
2021/11/18 15:26:54;;;;;;;0.50;0.50;;;;;;;;;;7333862;19;154000;-14
2021/11/18 15:29:26;;;;;;;0.50;0.50;;;;;;;;;;7332677;19;153551;-15
2021/11/18 15:31:59;;;;;;;0.30;0.30;;;;;;;;;;7333560;19;162545;-15
2021/11/18 15:34:31;;;;;;;0.65;0.60;;;;;;;;;;7331548;19;162636;-15
2021/11/18 15:37:05;;;;;;;0.50;0.50;;;;;;;;;;7333656;19;153925;-14
2021/11/18 15:39:37;;;;;;;0.43;0.43;;;;;;;;;;7333515;19;153844;-15
2021/11/18 15:42:10;;;;;;;0.40;0.40;;;;;;;;;;7332031;19;161905;-16
2021/11/18 15:44:42;;;;;;;0.57;0.47;;;;;;;;;;7333120;19;162565;-14
2021/11/18 15:47:14;;;;;;;0.87;0.30;;;;;;;;;;7333605;19;153971;-14
2021/11/18 15:49:45;;;;;;;0.55;0.40;;;;;;;;;;7333284;19;153772;-13
2021/11/18 15:52:23;;;;;;;0.75;0.55;;;;;;;;;;7331259;19;161855;-13
2021/11/18 15:54:55;;;;;;;0.30;0.30;;;;;;;;;;7330977;19;162364;-15
2021/11/18 15:57:27;;;;;;;0.50;0.50;;;;;;;;;;7333289;19;154108;-15
2021/11/18 16:00:02;;;;;;;0.40;0.40;;;;;;;;;;7333241;19;153485;-16
2021/11/18 16:02:42;;;;;;;;;;;;;;;;;;7333050;19;161792;-15
2021/11/18 16:05:13;;;;;;;0.30;0.30;;;;;;;;;;7332809;19;162753;-15
2021/11/18 16:07:54;;;;;;;0.30;0.30;;;;;;;;;;7331402;19;154030;-16
2021/11/18 16:10:28;;;;;;;0.40;0.40;;;;;;;;;;7332668;19;153586;-16
2021/11/18 16:13:03;;;;;;;1.35;0.40;;;;;;;;;;7332258;19;161971;-13
2021/11/18 16:15:39;;;;;;;0.45;0.45;;;;;;;;;;7329741;19;162490;-15
2021/11/18 16:18:13;;;;;;;0.30;0.30;;;;;;;;;;7332576;19;154061;-16
2021/11/18 16:20:51;;;;;;;0.30;0.30;;;;;;;;;;7331536;19;153530;-14
2021/11/18 16:23:26;;;;;;;0.30;0.30;;;;;;;;;;7331985;19;161831;-13
2021/11/18 16:25:58;;;;;;;0.40;0.40;;;;;;;;;;7330555;19;162561;-15
2021/11/18 16:28:30;;;;;;;0.30;0.30;;;;;;;;;;7332552;19;154034;-13
2021/11/18 16:31:02;;;;;;;0.30;0.30;;;;;;;;;;7332217;19;153701;-16
2021/11/18 16:33:33;;;;;;;0.50;0.50;;;;;;;;;;7331517;19;161853;-14
2021/11/18 16:36:06;;;;;;;0.30;0.30;;;;;;;;;;7331641;19;162457;-14
2021/11/18 16:38:42;;;;;;;0.82;0.30;;;;;;;;;;7331854;19;154014;-14
2021/11/18 16:41:16;;;;;;;0.30;0.30;;;;;;;;;;7330660;19;153647;-14
2021/11/18 16:43:48;;;;;;;0.40;0.40;;;;;;;;;;7331523;19;161790;-14
2021/11/18 16:46:21;;;;;;;0.30;0.30;;;;;;;;;;7331089;19;162534;-15
2021/11/18 16:48:52;;;;;;;0.30;0.28;;;;;;;;;;7331754;19;154122;-14
2021/11/18 16:51:32;;;;;;;0.30;0.30;;;;;;;;;;7331716;19;153524;-15
2021/11/18 16:54:06;;;;;;;0.20;0.20;;;;;;;;;;7330800;19;161848;-15
2021/11/18 16:56:41;;;;;;;0.30;0.30;;;;;;;;;;7329983;19;162483;-14
2021/11/18 16:59:15;;;;;;;0.30;0.30;;;;;;;;;;7330111;19;154042;-15
2021/11/18 17:01:49;;;;;;;0.30;0.30;;;;;;;;;;7331109;19;153614;-14
2021/11/18 17:04:20;;;;;;;0.50;0.47;;;;;;;;;;7330759;19;161883;-13
2021/11/18 17:06:54;;;;;;;0.32;0.32;;;;;;;;;;7330679;19;162496;-14
2021/11/18 17:09:31;;;;;;;0.30;0.30;;;;;;;;;;7331113;19;154039;-14
2021/11/18 17:12:03;;;;;;;0.30;0.30;;;;;;;;;;7331026;19;153685;-12
2021/11/18 17:14:35;;;;;;;0.35;0.35;;;;;;;;;;7330115;19;161820;-14
2021/11/18 17:17:10;;;;;;;0.25;0.25;;;;;;;;;;7329407;19;162541;-13
2021/11/18 17:19:44;;;;;;;0.30;0.30;;;;;;;;;;7329085;19;154014;-13
2021/11/18 17:22:19;;;;;;;0.80;0.30;;;;;;;;;;7327877;19;153691;-13
2021/11/18 17:24:53;;;;;;;0.40;0.40;;;;;;;;;;7329021;19;161818;-13
2021/11/18 17:27:26;;;;;;;0.30;0.30;;;;;;;;;;7330082;19;162891;-14
2021/11/18 17:30:02;;;;;;;0.20;0.20;;;;;;;;;;7330468;19;154400;-13
2021/11/18 17:32:33;;;;;;;0.30;0.30;;;;;;;;;;7330249;19;153531;-14
2021/11/18 17:35:07;;;;;;;0.38;0.38;;;;;;;;;;7328712;19;161775;-13
2021/11/18 17:37:40;;;;;;;0.30;0.30;;;;;;;;;;7329706;19;162646;-12
2021/11/18 17:40:20;;;;;;;0.33;0.33;;;;;;;;;;7330630;19;154057;-15
2021/11/18 17:42:53;;;;;;;0.30;0.30;;;;;;;;;;7330262;19;153746;-15
2021/11/18 17:45:26;;;;;;;;;;;;;;;;;;7330498;19;161854;-14
2021/11/18 17:47:59;;;;;;;0.40;0.40;;;;;;;;;;7329859;19;162675;-14
2021/11/18 17:50:33;;;;;;;0.20;0.20;;;;;;;;;;7330150;19;154062;-13
2021/11/18 17:53:05;;;;;;;0.20;0.20;;;;;;;;;;7329870;19;153556;-13
2021/11/18 17:55:42;;;;;;;0.40;0.40;;;;;;;;;;7328235;19;161924;-14
2021/11/18 17:58:14;;;;;;;0.20;0.20;;;;;;;;;;7329591;19;162469;-14
2021/11/18 18:00:52;;;;;;;0.30;0.30;;;;;;;;;;7329980;19;154506;-15
2021/11/18 18:03:24;;;;;;;0.25;0.25;;;;;;;;;;7329661;19;153637;-14
2021/11/18 18:05:58;;;;;;;0.30;0.30;;;;;;;;;;7329673;19;161991;-14
2021/11/18 18:08:30;;;;;;;0.25;0.25;;;;;;;;;;7329225;19;162484;-13
2021/11/18 18:11:05;;;;;;;0.27;0.27;;;;;;;;;;7329654;19;154038;-14
2021/11/18 18:13:36;;;;;;;0.28;0.28;;;;;;;;;;7329486;19;153623;-13
2021/11/18 18:16:11;;;;;;;0.22;0.22;;;;;;;;;;7327025;19;161607;-16
2021/11/18 18:18:45;;;;;;;0.22;0.22;;;;;;;;;;7328794;19;162343;-14
2021/11/18 18:21:17;;;;;;;0.20;0.20;;;;;;;;;;7327486;19;153958;-15
2021/11/18 18:23:50;;;;;;;;;;;;;;;;;;7329736;19;153526;-14
2021/11/18 18:26:33;;;;;;;0.30;0.30;;;;;;;;;;7328594;19;162131;-14
2021/11/18 18:29:07;;;;;;;0.20;0.20;;;;;;;;;;7328624;19;162354;-14
2021/11/18 18:31:42;;;;;;;0.30;0.30;;;;;;;;;;7329863;19;154141;-14
2021/11/18 18:34:13;;;;;;;0.30;0.30;;;;;;;;;;7335542;19;153759;-14
2021/11/18 18:36:46;;;;;;;0.28;0.28;;;;;;;;;;7331961;19;161969;-14
2021/11/18 18:39:20;;;;;;;0.20;0.20;;;;;;;;;;7335332;19;162362;-14
2021/11/18 18:41:54;;;;;;;0.30;0.30;;;;;;;;;;7335679;19;153970;-13
2021/11/18 18:44:27;;;;;;;0.40;0.30;;;;;;;;;;7334112;19;153388;-14
2021/11/18 18:47:00;;;;;;;0.20;0.20;;;;;;;;;;7334762;19;161753;-13
2021/11/18 18:49:41;;;;;;;0.30;0.30;;;;;;;;;;7334892;19;162365;-14
2021/11/18 18:52:15;;;;;;;0.30;0.30;;;;;;;;;;7335349;19;153972;-15
2021/11/18 18:54:47;;;;;;;0.35;0.35;;;;;;;;;;7335499;19;153461;-15
2021/11/18 18:57:27;;;;;;;0.30;0.30;;;;;;;;;;7332811;19;161894;-13
2021/11/18 18:59:58;;;;;;;0.30;0.30;;;;;;;;;;7334416;19;162426;-15
2021/11/18 19:02:33;;;;;;;0.32;0.32;;;;;;;;;;7334802;19;153969;-14
2021/11/18 19:05:04;;;;;;;0.28;0.28;;;;;;;;;;7333761;19;153562;-15
2021/11/18 19:07:35;;;;;;;0.20;0.20;;;;;;;;;;7334431;19;161982;-14
2021/11/18 19:10:09;;;;;;;0.30;0.30;;;;;;;;;;7334234;19;162680;-15
2021/11/18 19:12:44;;;;;;;0.30;0.30;;;;;;;;;;7334650;19;153969;-14
2021/11/18 19:15:20;;;;;;;0.30;0.30;;;;;;;;;;7334645;19;153585;-14
2021/11/18 19:17:52;;;;;;;0.28;0.28;;;;;;;;;;7334350;19;161781;-15
2021/11/18 19:20:24;;;;;;;0.30;0.30;;;;;;;;;;7333554;19;162537;-15
2021/11/18 19:22:55;;;;;;;0.40;0.40;;;;;;;;;;7334684;19;154040;-14
2021/11/18 19:25:36;;;;;;;0.30;0.30;;;;;;;;;;7334067;19;153576;-16
2021/11/18 19:28:23;;;;;;;0.25;0.25;;;;;;;;;;7333915;19;161944;-16
2021/11/18 19:33:44;;;;;;;0.20;0.20;;;;;;;;;;7334023;19;154023;-15
2021/11/18 19:36:16;;;;;;;;;;;;;;;;;;7333966;19;153674;-14
2021/11/18 19:38:48;;;;;;;0.30;0.30;;;;;;;;;;7333902;19;162121;-13
2021/11/18 19:41:23;;;;;;;0.30;0.30;;;;;;;;;;7333332;19;162413;-15
2021/11/18 19:44:00;;;;;;;0.20;0.20;;;;;;;;;;7332874;19;153986;-16
2021/11/18 19:46:33;;;;;;;0.30;0.30;;;;;;;;;;7332642;19;153754;-15
2021/11/18 19:49:05;;;;;;;0.30;0.30;;;;;;;;;;7333295;19;161949;-14
2021/11/18 19:51:45;;;;;;;0.20;0.20;;;;;;;;;;7333301;19;162438;-14
2021/11/18 19:54:19;;;;;;;0.20;0.20;;;;;;;;;;7333744;19;154026;-14
2021/11/18 19:56:51;;;;;;;0.47;0.47;;;;;;;;;;7332111;19;153463;-13
2021/11/18 19:59:26;;;;;;;0.30;0.30;;;;;;;;;;7333031;19;162056;-16
2021/11/18 20:01:59;;;;;;;0.40;0.40;;;;;;;;;;7333000;19;162688;-16
2021/11/18 20:04:33;;;;;;;1.02;0.40;;;;;;;;;;7333257;19;153936;-14
2021/11/18 20:07:06;;;;;;;0.43;0.40;;;;;;;;;;7333198;19;153791;-14
2021/11/18 20:09:38;;;;;;;0.40;0.37;;;;;;;;;;7332250;19;162065;-16
2021/11/18 20:12:13;;;;;;;0.43;0.43;;;;;;;;;;7335309;19;162482;-14
2021/11/18 20:14:48;;;;;;;0.75;0.40;;;;;;;;;;7332602;19;154192;-14
2021/11/18 20:17:23;;;;;;;1.13;0.50;;;;;;;;;;7331393;19;153691;-14
2021/11/18 20:19:55;;;;;;;0.57;0.57;;;;;;;;;;7332439;19;161856;-14
2021/11/18 20:22:29;;;;;;;0.50;0.50;;;;;;;;;;7333233;19;162640;-23
2021/11/18 20:25:01;;;;;;;0.50;0.50;;;;;;;;;;7332576;19;154134;-14
2021/11/18 20:27:33;;;;;;;1.10;0.60;;;;;;;;;;7331179;19;153565;-17
2021/11/18 20:30:14;;;;;;;0.50;0.43;;;;;;;;;;7328024;19;161844;-15
2021/11/18 20:32:49;;;;;;;1.10;0.55;;;;;;;;;;7331946;19;162528;-14
2021/11/18 20:35:24;;;;;;;0.63;0.60;;;;;;;;;;7332544;19;154301;-14
2021/11/18 20:37:57;;;;;;;1.40;1.30;;;;;;;;;;7330516;19;153732;-14
2021/11/18 20:40:36;;;;;;;3.47;2.72;;;;;;;;;;7330951;19;161800;-15
2021/11/18 20:43:08;;;;;;;2.20;2.00;;;;;;;;;;7334231;19;162363;-16
2021/11/18 20:45:44;;;;;;;5.20;3.70;;;;;;;;;;7331992;19;154039;-13
2021/11/18 20:48:16;;;;;;;33.08;26.23;;;;;;;;;;7334180;19;153836;-16
2021/11/18 20:50:53;;;;;;;12.93;9.43;;;;;;;;;;7334690;19;161584;-15
2021/11/18 20:53:24;;;;;;;8.20;6.63;;;;;;;;;;7331079;19;162500;-16
2021/11/18 20:55:56;;;;;;;8.48;7.57;;;;;;;;;;7330380;19;154266;-15
2021/11/18 20:58:29;;;;;;;9.95;7.70;;;;;;;;;;7328628;19;153937;-16
2021/11/18 21:01:06;;;;;;;14.32;12.45;;;;;;;;;;7333785;19;161808;-16
2021/11/18 21:03:37;;;;;;;12.43;11.13;;;;;;;;;;7331398;19;162407;-14
2021/11/18 21:06:10;;;;;;;12.55;11.13;;;;;;;;;;7333163;19;154127;-14
2021/11/18 21:08:42;;;;;;;13.82;10.70;;;;;;;;;;7333035;19;153603;-14
2021/11/18 21:11:16;;;;;;;12.05;10.85;;;;;;;;;;7331746;19;162413;-13
2021/11/18 21:13:48;;;;;;;11.82;10.68;;;;;;;;;;7332465;19;162375;-14
2021/11/18 21:16:26;;;;;;;12.25;10.90;;;;;;;;;;7332980;19;154238;-12
2021/11/18 21:19:01;;;;;;;11.35;9.90;;;;;;;;;;7330435;19;153827;-15
2021/11/18 21:21:35;;;;;;;13.68;11.75;;;;;;;;;;7331314;19;161965;-14
2021/11/18 21:24:09;;;;;;;13.63;11.13;;;;;;;;;;7333033;19;162599;-13
2021/11/18 21:26:41;;;;;;;12.32;11.13;;;;;;;;;;7332964;19;154171;-15
2021/11/18 21:29:16;;;;;;;12.25;10.35;;;;;;;;;;7330047;19;153659;-14
2021/11/18 21:31:50;;;;;;;12.68;11.38;;;;;;;;;;7332103;19;161897;-15
2021/11/18 21:34:23;;;;;;;11.60;10.50;;;;;;;;;;7334412;19;162384;-13
2021/11/18 21:36:58;;;;;;;11.63;10.45;;;;;;;;;;7330451;19;154415;-16
2021/11/18 21:39:38;;;;;;;11.88;10.68;;;;;;;;;;7330523;19;153796;-14
2021/11/18 21:42:11;;;;;;;12.20;11.00;;;;;;;;;;7330686;19;162128;-15
2021/11/18 21:44:46;;;;;;;11.05;9.95;;;;;;;;;;7333153;19;162561;-14
2021/11/18 21:47:23;;;;;;;11.63;10.45;;;;;;;;;;7332425;19;154377;-15
2021/11/18 21:49:56;;;;;;;11.27;10.27;;;;;;;;;;7333119;19;153673;-15
2021/11/18 21:52:29;;;;;;;11.45;10.35;;;;;;;;;;7332459;19;161880;-16
2021/11/18 21:55:08;;;;;;;12.80;11.50;;;;;;;;;;7329289;19;162346;-15
2021/11/18 21:57:43;;;;;;;12.57;11.38;;;;;;;;;;7327994;19;153808;-14
2021/11/18 22:00:20;;;;;;;11.85;10.77;;;;;;;;;;7329730;19;153885;-15
2021/11/18 22:02:54;;;;;;;11.77;10.68;;;;;;;;;;7329313;19;162081;-14
2021/11/18 22:05:29;;;;;;;12.95;11.65;;;;;;;;;;7328563;19;162596;-14
2021/11/18 22:08:01;;;;;;;12.63;11.35;;;;;;;;;;7328367;19;154142;-15
2021/11/18 22:10:36;;;;;;;11.32;10.23;;;;;;;;;;7329593;19;153764;-15
2021/11/18 22:13:10;;;;;;;12.82;11.57;;;;;;;;;;7329179;19;162004;-16
2021/11/18 22:15:42;;;;;;;13.98;12.18;;;;;;;;;;7329148;19;162519;-13
2021/11/18 22:18:18;;;;;;;13.55;11.30;;;;;;;;;;7328190;19;153963;-14
2021/11/18 22:20:52;;;;;;;18.05;13.40;;;;;;;;;;7331027;19;153584;-15
2021/11/18 22:23:25;;;;;;;16.90;13.13;;;;;;;;;;7328308;19;161718;-15
2021/11/18 22:25:57;;;;;;;13.37;12.00;;;;;;;;;;7328734;19;162534;-14
2021/11/18 22:28:29;;;;;;;12.27;10.97;;;;;;;;;;7328972;19;154227;-13
2021/11/18 22:31:06;;;;;;;15.95;12.32;;;;;;;;;;7328862;19;153723;-15
2021/11/18 22:33:42;;;;;;;13.98;11.77;;;;;;;;;;7329824;19;161983;-15
2021/11/18 22:36:16;;;;;;;13.68;12.05;;;;;;;;;;7331141;19;162384;-13
2021/11/18 22:38:49;;;;;;;12.48;11.18;;;;;;;;;;7330643;19;154057;-15
2021/11/18 22:41:24;;;;;;;12.38;11.07;;;;;;;;;;7331531;19;153611;-20
2021/11/18 22:43:55;;;;;;;15.15;11.88;;;;;;;;;;7328400;19;161963;-14
2021/11/18 22:46:28;;;;;;;13.65;11.73;;;;;;;;;;7329231;19;162479;-14
2021/11/18 22:49:02;;;;;;;12.68;11.43;;;;;;;;;;7329105;19;154698;-15
2021/11/18 22:51:34;;;;;;;12.32;10.95;;;;;;;;;;7331457;19;153546;-13
2021/11/18 22:54:06;;;;;;;12.73;11.53;;;;;;;;;;7329886;19;161913;-15
2021/11/18 22:56:38;;;;;;;12.27;11.00;;;;;;;;;;7330948;19;162547;-14
2021/11/18 22:59:13;;;;;;;12.03;10.77;;;;;;;;;;7329911;19;154074;-16
2021/11/18 23:01:47;;;;;;;12.48;11.10;;;;;;;;;;7330444;19;153832;-15
2021/11/18 23:04:21;;;;;;;13.45;10.57;;;;;;;;;;7329232;19;161826;-17
2021/11/18 23:06:56;;;;;;;12.30;10.98;;;;;;;;;;7329348;19;162441;-14
2021/11/18 23:09:31;;;;;;;12.35;11.05;;;;;;;;;;7330481;19;153939;-16
2021/11/18 23:12:03;;;;;;;12.32;11.13;;;;;;;;;;7329733;19;153598;-16
2021/11/18 23:14:34;;;;;;;12.25;11.02;;;;;;;;;;7329930;19;161997;-16
2021/11/18 23:17:08;;;;;;;11.57;10.48;;;;;;;;;;7329252;19;162342;-14
2021/11/18 23:19:43;;;;;;;11.27;10.18;;;;;;;;;;7335974;19;153734;-14
2021/11/18 23:22:18;;;;;;;11.43;10.32;;;;;;;;;;7334785;19;154153;-15
2021/11/18 23:24:50;;;;;;;12.07;10.50;;;;;;;;;;7337165;19;161861;-15
2021/11/18 23:27:26;;;;;;;10.98;9.80;;;;;;;;;;7333373;19;162096;-14
2021/11/18 23:29:58;;;;;;;10.82;9.77;;;;;;;;;;7335187;19;153985;-14
2021/11/18 23:32:31;;;;;;;10.25;9.32;;;;;;;;;;7336693;19;153532;-15
2021/11/18 23:35:07;;;;;;;12.18;10.98;;;;;;;;;;7335620;19;162519;-15
2021/11/18 23:37:38;;;;;;;10.60;9.57;;;;;;;;;;7336140;19;162740;-15
2021/11/18 23:40:12;;;;;;;10.85;9.75;;;;;;;;;;7333598;19;153953;-14
2021/11/18 23:42:45;;;;;;;10.40;9.40;;;;;;;;;;7337382;19;153583;-15
2021/11/18 23:45:18;;;;;;;10.73;9.63;;;;;;;;;;7335988;19;161743;-12
2021/11/18 23:47:49;;;;;;;11.15;10.07;;;;;;;;;;7335837;19;162332;-14
2021/11/18 23:50:26;;;;;;;11.07;9.98;;;;;;;;;;7336221;19;154222;-14
2021/11/18 23:52:58;;;;;;;10.77;9.88;;;;;;;;;;7333513;19;153777;-14
2021/11/18 23:55:30;;;;;;;9.68;8.77;;;;;;;;;;7332948;19;161759;-15
2021/11/18 23:58:03;;;;;;;10.80;9.60;;;;;;;;;;7333510;19;162447;-13
